Terminal Aerodrome Forecast
Issued by NWS

Home | Current Version | Previous Version | Text Only | Print | Product List | Glossary On
Versions: 1 2 3 4 5 6 7 8 9 10 11 12
000
FTUS45 KRIW 172300
TAFCPR
TAF
KCPR 172326Z 1800/1824 33007KT P6SM VCSH SCT060 BKN150
     FM180200 VRB05KT P6SM SCT110
     FM180700 24009KT P6SM SCT120
     FM181700 23014G22KT P6SM SCT120=

USA.gov is the U.S. government's official web portal to all federal, state and local government web resources and services.